createdAt,value
2023-03-15T00:00:06.767Z,54.54
2023-03-15T00:01:06.785Z,54.35
2023-03-15T00:02:06.765Z,53.94
2023-03-15T00:03:06.704Z,54.25
2023-03-15T00:04:06.711Z,54.45
2023-03-15T00:05:06.725Z,53.41
2023-03-15T00:06:06.704Z,53.20
2023-03-15T00:07:06.750Z,53.98
2023-03-15T00:08:06.675Z,54.46
2023-03-15T00:09:06.670Z,54.26
2023-03-15T00:10:06.652Z,54.57
2023-03-15T00:11:06.649Z,54.37
2023-03-15T00:12:06.648Z,54.35
2023-03-15T00:13:06.664Z,54.28
2023-03-15T00:14:06.643Z,53.65
2023-03-15T00:15:06.654Z,53.33
2023-03-15T00:16:06.635Z,52.68
2023-03-15T00:17:06.599Z,52.38
2023-03-15T00:18:06.604Z,53.12
2023-03-15T00:19:06.619Z,54.29
2023-03-15T00:20:06.598Z,55.23
2023-03-15T00:21:06.590Z,55.71
2023-03-15T00:22:06.556Z,56.37
2023-03-15T00:23:06.568Z,56.62
2023-03-15T00:24:06.571Z,56.55
2023-03-15T00:25:06.608Z,56.40
2023-03-15T00:26:06.558Z,56.22
2023-03-15T00:27:06.527Z,55.92
2023-03-15T00:28:06.550Z,55.96
2023-03-15T00:29:06.532Z,55.41
2023-03-15T00:30:06.522Z,55.45
2023-03-15T00:31:06.568Z,55.28
2023-03-15T00:32:06.538Z,55.38
2023-03-15T00:33:06.522Z,57.49
2023-03-15T00:34:06.506Z,55.05
2023-03-15T00:35:06.501Z,54.86
2023-03-15T00:36:06.605Z,55.11
2023-03-15T00:37:06.716Z,56.60
2023-03-15T00:38:06.460Z,55.19
2023-03-15T00:39:06.483Z,55.59
2023-03-15T00:40:06.478Z,55.59
2023-03-15T00:41:06.447Z,55.17
2023-03-15T00:42:06.458Z,55.48
2023-03-15T00:43:06.480Z,55.49
2023-03-15T00:44:06.510Z,56.24
2023-03-15T00:45:06.422Z,56.36
2023-03-15T00:46:06.469Z,57.93
2023-03-15T00:47:06.430Z,55.89
2023-03-15T00:48:06.381Z,55.59
2023-03-15T00:49:06.422Z,55.49
2023-03-15T00:50:06.386Z,55.67
2023-03-15T00:51:06.385Z,56.05
2023-03-15T00:52:06.366Z,55.41
2023-03-15T00:53:06.368Z,54.83
2023-03-15T00:54:06.341Z,55.20
2023-03-15T00:55:06.384Z,56.12
2023-03-15T00:56:06.340Z,55.97
2023-03-15T00:57:06.341Z,57.97
2023-03-15T00:58:06.294Z,54.93
2023-03-15T00:59:06.311Z,54.94
2023-03-15T01:00:06.332Z,56.25
2023-03-15T01:01:06.360Z,55.52
2023-03-15T01:02:06.334Z,55.39
2023-03-15T01:03:06.436Z,55.54
2023-03-15T01:04:06.359Z,55.42
2023-03-15T01:05:06.297Z,55.83
2023-03-15T01:06:06.282Z,55.52
2023-03-15T01:07:06.300Z,55.57
2023-03-15T01:08:06.238Z,55.18
2023-03-15T01:09:06.292Z,55.73
2023-03-15T01:10:06.263Z,54.98
2023-03-15T01:11:06.285Z,54.81
2023-03-15T01:12:06.228Z,55.03
2023-03-15T01:13:06.277Z,55.06
2023-03-15T01:14:06.251Z,55.94
2023-03-15T01:15:06.205Z,60.17
2023-03-15T01:16:06.345Z,56.16
2023-03-15T01:17:06.329Z,55.88
2023-03-15T01:18:06.209Z,58.53
2023-03-15T01:19:06.243Z,56.57
2023-03-15T01:20:06.178Z,55.22
2023-03-15T01:21:06.182Z,55.18
2023-03-15T01:22:06.147Z,55.30
2023-03-15T01:23:06.146Z,55.01
2023-03-15T01:24:06.168Z,54.98
2023-03-15T01:25:06.193Z,55.14
2023-03-15T01:26:06.158Z,55.27
2023-03-15T01:27:06.106Z,56.26
2023-03-15T01:28:06.141Z,56.18
2023-03-15T01:29:06.125Z,56.03
2023-03-15T01:30:06.138Z,55.75
2023-03-15T01:31:06.187Z,56.06
2023-03-15T01:32:06.168Z,55.69
2023-03-15T01:33:06.074Z,55.14
2023-03-15T01:34:06.065Z,55.32
2023-03-15T01:35:06.076Z,55.73
2023-03-15T01:36:06.158Z,55.78
2023-03-15T01:37:06.126Z,55.55
2023-03-15T01:38:06.056Z,54.51
2023-03-15T01:39:06.036Z,54.72
2023-03-15T01:40:06.054Z,55.37
2023-03-15T01:41:06.075Z,55.81
2023-03-15T01:42:06.021Z,54.89
2023-03-15T01:43:06.284Z,55.22
2023-03-15T01:44:06.014Z,58.96
2023-03-15T01:45:06.006Z,56.00
2023-03-15T01:46:05.994Z,56.18
2023-03-15T01:47:06.075Z,56.16
2023-03-15T01:48:05.987Z,55.69
2023-03-15T01:49:06.011Z,54.96
2023-03-15T01:50:05.977Z,55.67
2023-03-15T01:51:05.951Z,56.64
2023-03-15T01:52:05.946Z,55.66
2023-03-15T01:53:06.020Z,55.35
2023-03-15T01:54:06.486Z,54.85
2023-03-15T01:55:05.973Z,55.16
2023-03-15T01:56:05.915Z,56.21
2023-03-15T01:57:05.907Z,55.96
2023-03-15T01:58:05.920Z,55.27
2023-03-15T01:59:05.926Z,55.19
2023-03-15T02:00:05.868Z,54.64
2023-03-15T02:01:05.999Z,55.08
2023-03-15T02:02:05.933Z,58.78
2023-03-15T02:03:05.862Z,56.04
2023-03-15T02:04:05.824Z,56.11
2023-03-15T02:05:05.857Z,55.13
2023-03-15T02:06:05.828Z,55.40
2023-03-15T02:07:05.894Z,56.04
2023-03-15T02:08:05.819Z,56.27
2023-03-15T02:09:05.812Z,55.41
2023-03-15T02:10:05.939Z,55.10
2023-03-15T02:11:05.792Z,54.80
2023-03-15T02:12:05.796Z,56.97
2023-03-15T02:13:05.866Z,55.57
2023-03-15T02:14:05.773Z,55.82
2023-03-15T02:15:05.769Z,55.97
2023-03-15T02:16:05.780Z,56.58
2023-03-15T02:17:05.773Z,57.65
2023-03-15T02:18:05.755Z,58.51
2023-03-15T02:19:05.839Z,55.72
2023-03-15T02:20:05.752Z,56.32
2023-03-15T02:21:05.719Z,56.55
2023-03-15T02:22:05.718Z,56.20
2023-03-15T02:23:05.952Z,56.63
2023-03-15T02:24:05.701Z,56.36
2023-03-15T02:25:05.748Z,55.48
2023-03-15T02:26:05.717Z,56.70
2023-03-15T02:27:05.708Z,56.93
2023-03-15T02:28:05.703Z,55.79
2023-03-15T02:29:05.681Z,56.16
2023-03-15T02:30:05.662Z,56.63
2023-03-15T02:31:05.726Z,57.30
2023-03-15T02:32:05.768Z,56.34
2023-03-15T02:33:05.664Z,55.69
2023-03-15T02:34:05.629Z,56.08
2023-03-15T02:35:05.629Z,55.76
2023-03-15T02:36:05.622Z,56.37
2023-03-15T02:37:05.680Z,55.86
2023-03-15T02:38:05.626Z,56.41
2023-03-15T02:39:05.620Z,55.59
2023-03-15T02:40:05.612Z,55.07
2023-03-15T02:41:05.580Z,55.11
2023-03-15T02:42:05.607Z,55.09
2023-03-15T02:43:05.632Z,55.35
2023-03-15T02:44:05.557Z,56.04
2023-03-15T02:45:05.559Z,55.79
2023-03-15T02:46:05.590Z,55.97
2023-03-15T02:47:05.540Z,55.71
2023-03-15T02:48:05.549Z,55.76
2023-03-15T02:49:05.873Z,57.29
2023-03-15T02:50:05.527Z,56.44
2023-03-15T02:51:05.520Z,55.79
2023-03-15T02:52:05.539Z,55.50
2023-03-15T02:53:05.510Z,55.57
2023-03-15T02:54:05.513Z,55.64
2023-03-15T02:55:05.566Z,55.50
2023-03-15T02:56:05.555Z,55.83
2023-03-15T02:57:05.467Z,55.94
2023-03-15T02:58:05.478Z,56.33
2023-03-15T02:59:05.484Z,55.68
2023-03-15T03:00:05.466Z,55.31
2023-03-15T03:01:05.625Z,55.56
2023-03-15T03:02:05.499Z,55.54
2023-03-15T03:03:05.463Z,55.48
2023-03-15T03:04:05.416Z,55.38
2023-03-15T03:05:05.424Z,55.38
2023-03-15T03:06:05.409Z,55.61
2023-03-15T03:07:05.444Z,55.01
2023-03-15T03:08:05.413Z,55.09
2023-03-15T03:09:05.408Z,55.92
2023-03-15T03:10:05.390Z,56.55
2023-03-15T03:11:05.411Z,56.24
2023-03-15T03:12:05.365Z,58.97
2023-03-15T03:13:05.405Z,55.54
2023-03-15T03:14:05.351Z,54.98
2023-03-15T03:15:05.342Z,57.08
2023-03-15T03:16:05.337Z,55.55
2023-03-15T03:17:05.342Z,56.18
2023-03-15T03:18:05.351Z,59.10
2023-03-15T03:19:05.351Z,56.81
2023-03-15T03:20:05.315Z,56.16
2023-03-15T03:21:05.288Z,55.81
2023-03-15T03:22:05.303Z,55.29
2023-03-15T03:23:05.316Z,56.54
2023-03-15T03:24:05.294Z,55.31
2023-03-15T03:25:05.310Z,59.33
2023-03-15T03:26:05.268Z,57.08
2023-03-15T03:27:05.246Z,55.09
2023-03-15T03:28:05.243Z,53.87
2023-03-15T03:29:05.238Z,54.90
2023-03-15T03:30:05.243Z,57.07
2023-03-15T03:31:05.272Z,51.59
2023-03-15T03:32:05.218Z,54.37
2023-03-15T03:33:05.247Z,53.08
2023-03-15T03:34:05.216Z,53.76
2023-03-15T03:35:05.194Z,53.27
2023-03-15T03:36:05.248Z,54.23
2023-03-15T03:37:05.424Z,54.12
2023-03-15T03:38:05.177Z,56.24
2023-03-15T03:39:05.165Z,55.75
2023-03-15T03:40:05.180Z,56.29
2023-03-15T03:41:05.146Z,55.86
2023-03-15T03:42:05.133Z,55.73
2023-03-15T03:43:05.200Z,55.91
2023-03-15T03:44:05.218Z,55.12
2023-03-15T03:45:05.138Z,55.80
2023-03-15T03:46:05.130Z,55.34
2023-03-15T03:47:05.126Z,56.44
2023-03-15T03:48:05.091Z,56.70
2023-03-15T03:49:05.378Z,55.65
2023-03-15T03:50:05.085Z,56.56
2023-03-15T03:51:05.087Z,56.62
2023-03-15T03:52:05.048Z,57.08
2023-03-15T03:53:05.051Z,58.75
2023-03-15T03:54:05.054Z,57.55
2023-03-15T03:55:05.477Z,58.29
2023-03-15T03:56:05.035Z,57.27
2023-03-15T03:57:05.039Z,58.71
2023-03-15T03:58:05.028Z,56.34
2023-03-15T03:59:05.023Z,57.16
2023-03-15T04:00:05.015Z,60.25
2023-03-15T04:01:05.068Z,58.04
2023-03-15T04:02:04.992Z,58.56
2023-03-15T04:03:04.995Z,58.20
2023-03-15T04:04:04.976Z,57.37
2023-03-15T04:05:04.970Z,58.30
2023-03-15T04:06:04.987Z,57.69
2023-03-15T04:07:05.044Z,58.40
2023-03-15T04:08:04.961Z,59.87
2023-03-15T04:09:04.969Z,57.50
2023-03-15T04:10:04.941Z,60.37
2023-03-15T04:11:04.943Z,58.58
2023-03-15T04:12:04.934Z,57.58
2023-03-15T04:13:05.007Z,58.92
2023-03-15T04:14:04.946Z,59.24
2023-03-15T04:15:04.959Z,57.82
2023-03-15T04:16:04.910Z,56.98
2023-03-15T04:17:04.940Z,57.53
2023-03-15T04:18:04.894Z,59.10
2023-03-15T04:19:05.013Z,60.64
2023-03-15T04:20:04.882Z,59.41
2023-03-15T04:21:04.886Z,58.82
2023-03-15T04:22:04.874Z,59.28
2023-03-15T04:23:04.864Z,59.60
2023-03-15T04:24:04.881Z,59.58
2023-03-15T04:25:04.905Z,59.81
2023-03-15T04:26:04.867Z,58.48
2023-03-15T04:27:04.806Z,59.27
2023-03-15T04:28:04.835Z,58.63
2023-03-15T04:29:04.874Z,60.85
2023-03-15T04:30:04.802Z,59.83
2023-03-15T04:31:04.846Z,58.93
2023-03-15T04:32:04.791Z,59.80
2023-03-15T04:33:04.802Z,62.91
2023-03-15T04:34:04.785Z,58.23
2023-03-15T04:35:04.781Z,61.14
2023-03-15T04:36:04.845Z,59.15
2023-03-15T04:37:04.809Z,59.41
2023-03-15T04:38:04.768Z,60.19
2023-03-15T04:39:04.773Z,61.24
2023-03-15T04:40:04.764Z,59.55
2023-03-15T04:41:04.732Z,58.94
2023-03-15T04:42:04.728Z,58.43
2023-03-15T04:43:04.762Z,58.90
2023-03-15T04:44:04.731Z,60.65
2023-03-15T04:45:04.714Z,61.34
2023-03-15T04:46:04.706Z,59.52
2023-03-15T04:47:04.714Z,60.84
2023-03-15T04:48:04.689Z,60.33
2023-03-15T04:49:04.723Z,60.31
2023-03-15T04:50:04.662Z,60.49
2023-03-15T04:51:04.658Z,58.50
2023-03-15T04:52:04.662Z,57.75
2023-03-15T04:53:04.646Z,59.82
2023-03-15T04:54:04.636Z,61.41
2023-03-15T04:55:04.755Z,61.22
2023-03-15T04:56:04.931Z,59.81
2023-03-15T04:57:04.624Z,62.82
2023-03-15T04:58:04.627Z,59.89
2023-03-15T04:59:04.605Z,59.82
2023-03-15T05:00:04.614Z,58.33
2023-03-15T05:01:04.912Z,60.80
2023-03-15T05:02:04.625Z,61.18
2023-03-15T05:03:04.595Z,58.34
2023-03-15T05:04:04.582Z,58.75
2023-03-15T05:05:04.552Z,61.02
2023-03-15T05:06:04.561Z,61.87
2023-03-15T05:07:04.600Z,60.86
2023-03-15T05:08:04.547Z,61.75
2023-03-15T05:09:04.560Z,60.97
2023-03-15T05:10:04.530Z,60.06
2023-03-15T05:11:04.523Z,59.40
2023-03-15T05:12:04.495Z,60.58
2023-03-15T05:13:04.590Z,60.40
2023-03-15T05:14:04.536Z,60.63
2023-03-15T05:15:04.549Z,59.09
2023-03-15T05:16:04.539Z,60.09
2023-03-15T05:17:04.483Z,60.19
2023-03-15T05:18:04.461Z,62.72
2023-03-15T05:19:04.524Z,61.58
2023-03-15T05:20:04.472Z,63.47
2023-03-15T05:21:04.433Z,60.26
2023-03-15T05:22:04.434Z,60.90
2023-03-15T05:23:04.417Z,60.77
2023-03-15T05:24:04.449Z,61.85
2023-03-15T05:25:04.442Z,59.56
2023-03-15T05:26:04.436Z,61.13
2023-03-15T05:27:04.422Z,58.82
2023-03-15T05:28:04.421Z,58.62
2023-03-15T05:29:04.391Z,58.62
2023-03-15T05:30:04.423Z,60.34
2023-03-15T05:31:04.439Z,60.63
2023-03-15T05:32:04.433Z,60.99
2023-03-15T05:33:04.387Z,60.90
2023-03-15T05:34:04.390Z,62.08
2023-03-15T05:35:04.400Z,62.24
2023-03-15T05:36:04.364Z,61.66
2023-03-15T05:37:04.417Z,60.91
2023-03-15T05:38:04.368Z,59.51
2023-03-15T05:39:04.309Z,62.41
2023-03-15T05:40:04.316Z,60.00
2023-03-15T05:41:04.299Z,60.06
2023-03-15T05:42:04.314Z,62.07
2023-03-15T05:43:04.329Z,61.74
2023-03-15T05:44:04.288Z,60.03
2023-03-15T05:45:04.306Z,63.49
2023-03-15T05:46:04.319Z,61.01
2023-03-15T05:47:04.310Z,63.00
2023-03-15T05:48:04.253Z,60.98
2023-03-15T05:49:04.326Z,60.36
2023-03-15T05:50:04.262Z,59.72
2023-03-15T05:51:04.233Z,60.00
2023-03-15T05:52:04.233Z,63.88
2023-03-15T05:53:04.262Z,62.23
2023-03-15T05:54:04.216Z,64.32
2023-03-15T05:55:04.254Z,64.83
2023-03-15T05:56:04.218Z,63.98
2023-03-15T05:57:04.199Z,64.16
2023-03-15T05:58:04.218Z,62.99
2023-03-15T05:59:04.193Z,63.85
2023-03-15T06:00:04.191Z,63.19
2023-03-15T06:01:04.585Z,62.76
2023-03-15T06:02:04.158Z,62.76
2023-03-15T06:03:04.156Z,66.57
2023-03-15T06:04:04.166Z,67.29
2023-03-15T06:05:04.151Z,63.84
2023-03-15T06:06:04.125Z,63.15
2023-03-15T06:07:04.158Z,66.36
2023-03-15T06:08:04.155Z,62.50
2023-03-15T06:09:04.112Z,63.92
2023-03-15T06:10:04.100Z,61.95
2023-03-15T06:11:04.084Z,63.01
2023-03-15T06:12:04.085Z,62.00
2023-03-15T06:13:04.115Z,61.52
2023-03-15T06:14:04.057Z,63.81
2023-03-15T06:15:04.076Z,63.34
2023-03-15T06:16:04.052Z,61.49
2023-03-15T06:17:04.042Z,62.40
2023-03-15T06:18:04.065Z,65.38
2023-03-15T06:19:04.091Z,64.40
2023-03-15T06:20:04.040Z,63.24
2023-03-15T06:21:04.030Z,64.78
2023-03-15T06:22:04.022Z,63.42
2023-03-15T06:23:04.018Z,63.11
2023-03-15T06:24:04.005Z,62.75
2023-03-15T06:25:04.006Z,63.11
2023-03-15T06:26:03.979Z,66.05
2023-03-15T06:27:03.972Z,63.18
2023-03-15T06:28:03.973Z,61.63
2023-03-15T06:29:03.974Z,62.92
2023-03-15T06:30:03.975Z,64.24
2023-03-15T06:31:04.068Z,62.73
2023-03-15T06:32:03.948Z,64.54
2023-03-15T06:33:04.057Z,64.30
2023-03-15T06:34:03.925Z,64.73
2023-03-15T06:35:03.914Z,65.49
2023-03-15T06:36:03.966Z,62.52
2023-03-15T06:37:03.956Z,63.49
2023-03-15T06:38:03.975Z,61.61
2023-03-15T06:39:03.911Z,62.07
2023-03-15T06:40:03.881Z,62.42
2023-03-15T06:41:03.883Z,62.83
2023-03-15T06:42:03.856Z,65.51
2023-03-15T06:43:03.919Z,65.28
2023-03-15T06:44:03.843Z,64.88
2023-03-15T06:45:03.829Z,65.40
2023-03-15T06:46:03.864Z,63.70
2023-03-15T06:47:03.845Z,62.75
2023-03-15T06:48:03.848Z,64.28
2023-03-15T06:49:03.871Z,61.76
2023-03-15T06:50:03.815Z,62.19
2023-03-15T06:51:03.808Z,63.72
2023-03-15T06:52:03.863Z,64.38
2023-03-15T06:53:03.775Z,64.03
2023-03-15T06:54:03.780Z,62.76
2023-03-15T06:55:03.839Z,62.71
2023-03-15T06:56:03.803Z,63.81
2023-03-15T06:57:03.757Z,63.73
2023-03-15T06:58:03.831Z,63.20
2023-03-15T06:59:03.754Z,64.10
2023-03-15T07:00:03.851Z,62.91
2023-03-15T07:01:03.756Z,63.84
2023-03-15T07:02:03.724Z,63.33
2023-03-15T07:03:03.811Z,64.47
2023-03-15T07:04:03.716Z,64.16
2023-03-15T07:05:03.694Z,62.67
2023-03-15T07:06:03.866Z,63.60
2023-03-15T07:07:04.183Z,63.36
2023-03-15T07:08:03.694Z,63.81
2023-03-15T07:09:03.665Z,61.48
2023-03-15T07:10:03.682Z,64.86
2023-03-15T07:11:03.667Z,62.50
2023-03-15T07:12:03.676Z,63.27
2023-03-15T07:13:03.779Z,64.43
2023-03-15T07:14:03.668Z,63.25
2023-03-15T07:15:03.653Z,62.89
2023-03-15T07:16:03.717Z,63.37
2023-03-15T07:17:03.614Z,63.24
2023-03-15T07:18:03.630Z,65.18
2023-03-15T07:19:03.627Z,63.05
2023-03-15T07:20:03.622Z,61.90
2023-03-15T07:21:03.612Z,61.75
2023-03-15T07:22:03.601Z,63.82
2023-03-15T07:23:03.596Z,63.33
2023-03-15T07:24:03.580Z,64.73
2023-03-15T07:25:03.628Z,66.24
2023-03-15T07:26:03.567Z,64.18
2023-03-15T07:27:03.580Z,63.22
2023-03-15T07:28:03.541Z,63.97
2023-03-15T07:29:03.572Z,62.56
2023-03-15T07:30:03.549Z,61.33
2023-03-15T07:31:03.579Z,67.28
2023-03-15T07:32:03.589Z,62.95
2023-03-15T07:33:03.563Z,64.96
2023-03-15T07:34:03.516Z,66.91
2023-03-15T07:35:03.502Z,62.08
2023-03-15T07:36:03.562Z,64.68
2023-03-15T07:37:03.543Z,63.33
2023-03-15T07:38:03.465Z,65.22
2023-03-15T07:39:03.474Z,65.20
2023-03-15T07:40:03.458Z,64.97
2023-03-15T07:41:03.477Z,63.73
2023-03-15T07:42:09.373Z,62.37
2023-03-15T07:43:03.482Z,61.60
2023-03-15T07:44:03.452Z,62.42
2023-03-15T07:45:03.470Z,63.16
2023-03-15T07:46:03.450Z,67.39
2023-03-15T07:47:03.426Z,61.61
2023-03-15T07:48:03.425Z,61.50
2023-03-15T07:49:03.462Z,62.37
2023-03-15T07:50:03.416Z,60.31
2023-03-15T07:51:03.396Z,60.10
2023-03-15T07:52:03.392Z,62.11
2023-03-15T07:53:03.384Z,62.58
2023-03-15T07:54:03.382Z,61.95
2023-03-15T07:55:03.402Z,62.54
2023-03-15T07:56:03.356Z,61.88
2023-03-15T07:57:03.332Z,61.25
2023-03-15T07:58:03.496Z,61.74
2023-03-15T07:59:03.323Z,63.21
2023-03-15T08:00:03.338Z,64.32
2023-03-15T08:01:03.399Z,64.24
2023-03-15T08:02:03.511Z,62.34
2023-03-15T08:03:03.394Z,61.70
2023-03-15T08:04:03.323Z,63.67
2023-03-15T08:05:03.323Z,62.63
2023-03-15T08:06:03.300Z,62.23
2023-03-15T08:07:03.367Z,62.24
2023-03-15T08:08:03.285Z,59.78
2023-03-15T08:09:03.268Z,60.09
2023-03-15T08:10:03.249Z,61.47
2023-03-15T08:11:03.244Z,62.62
2023-03-15T08:12:03.256Z,62.76
2023-03-15T08:13:03.305Z,61.64
2023-03-15T08:14:03.225Z,60.96
2023-03-15T08:15:03.224Z,60.69
2023-03-15T08:16:03.257Z,60.16
2023-03-15T08:17:03.210Z,61.30
2023-03-15T08:18:05.215Z,63.61
2023-03-15T08:19:03.245Z,61.68
2023-03-15T08:20:03.189Z,62.77
2023-03-15T08:21:03.170Z,62.81
2023-03-15T08:22:03.176Z,63.56
2023-03-15T08:23:03.183Z,62.28
2023-03-15T08:24:03.169Z,63.31
2023-03-15T08:25:03.205Z,60.50
2023-03-15T08:26:03.173Z,63.20
2023-03-15T08:27:03.150Z,62.12
2023-03-15T08:28:03.177Z,63.11
2023-03-15T08:29:03.158Z,61.31
2023-03-15T08:30:03.141Z,61.60
2023-03-15T08:31:03.161Z,61.52
2023-03-15T08:32:03.180Z,60.54
2023-03-15T08:33:03.178Z,61.72
2023-03-15T08:34:03.117Z,62.81
2023-03-15T08:35:03.085Z,62.26
2023-03-15T08:36:03.164Z,60.23
2023-03-15T08:37:03.105Z,61.02
2023-03-15T08:38:03.060Z,61.77
2023-03-15T08:39:03.096Z,62.80
2023-03-15T08:40:03.047Z,61.36
2023-03-15T08:41:03.026Z,62.69
2023-03-15T08:42:03.057Z,60.55
2023-03-15T08:43:03.053Z,62.92
2023-03-15T08:44:03.111Z,62.20
2023-03-15T08:45:03.009Z,61.54
2023-03-15T08:46:03.071Z,62.48
2023-03-15T08:47:03.057Z,60.68
2023-03-15T08:48:02.986Z,61.57
2023-03-15T08:49:03.016Z,61.97
2023-03-15T08:50:02.975Z,62.51
2023-03-15T08:51:02.962Z,62.27
2023-03-15T08:52:03.172Z,60.19
2023-03-15T08:53:02.974Z,62.02
2023-03-15T08:54:02.953Z,64.26
2023-03-15T08:55:02.990Z,61.77
2023-03-15T08:56:02.945Z,63.83
2023-03-15T08:57:02.947Z,63.59
2023-03-15T08:58:04.688Z,62.75
2023-03-15T08:59:02.898Z,61.51
2023-03-15T09:00:02.906Z,62.88
2023-03-15T09:01:02.978Z,64.56
2023-03-15T09:02:02.904Z,61.57
2023-03-15T09:03:02.910Z,62.40
2023-03-15T09:04:02.884Z,60.25
2023-03-15T09:05:02.929Z,61.07
2023-03-15T09:06:02.870Z,62.15
2023-03-15T09:07:02.904Z,62.66
2023-03-15T09:08:02.847Z,63.24
2023-03-15T09:09:02.851Z,61.40
2023-03-15T09:10:05.423Z,60.73
2023-03-15T09:11:02.829Z,62.38
2023-03-15T09:12:02.808Z,59.96
2023-03-15T09:13:02.872Z,62.05
2023-03-15T09:14:02.794Z,60.50
2023-03-15T09:15:02.802Z,60.66
2023-03-15T09:16:02.784Z,61.59
2023-03-15T09:17:02.848Z,60.60
2023-03-15T09:18:02.773Z,62.87
2023-03-15T09:19:03.007Z,62.74
2023-03-15T09:20:02.761Z,63.89
2023-03-15T09:21:02.782Z,63.18
2023-03-15T09:22:16.432Z,62.52
2023-03-15T09:23:03.751Z,61.13
2023-03-15T09:24:02.758Z,64.43
2023-03-15T09:25:02.761Z,60.72
2023-03-15T09:26:02.721Z,61.60
2023-03-15T09:27:02.728Z,62.65
2023-03-15T09:28:02.714Z,58.04
2023-03-15T09:29:02.685Z,58.16
2023-03-15T09:30:02.708Z,59.21
2023-03-15T09:31:02.725Z,62.87
2023-03-15T09:32:02.731Z,62.89
2023-03-15T09:33:02.738Z,57.12
2023-03-15T09:34:02.666Z,58.36
2023-03-15T09:35:02.645Z,59.81
2023-03-15T09:36:02.766Z,60.34
2023-03-15T09:37:02.757Z,63.33
2023-03-15T09:38:02.644Z,60.31
2023-03-15T09:39:02.640Z,61.87
2023-03-15T09:40:02.653Z,59.58
2023-03-15T09:41:02.626Z,58.95
2023-03-15T09:42:04.758Z,59.50
2023-03-15T09:43:02.853Z,60.21
2023-03-15T09:44:02.597Z,56.91
2023-03-15T09:45:02.588Z,58.55
2023-03-15T09:46:02.588Z,57.82
2023-03-15T09:47:02.575Z,58.23
2023-03-15T09:48:02.570Z,58.28
2023-03-15T09:49:02.602Z,56.75
2023-03-15T09:50:02.601Z,57.31
2023-03-15T09:51:02.533Z,59.01
2023-03-15T09:52:02.536Z,60.84
2023-03-15T09:53:02.612Z,60.60
2023-03-15T09:54:02.517Z,60.62
2023-03-15T09:55:02.684Z,58.50
2023-03-15T09:56:02.529Z,60.48
2023-03-15T09:57:02.497Z,59.58
2023-03-15T09:58:02.499Z,59.03
2023-03-15T09:59:02.600Z,60.25
2023-03-15T10:00:02.475Z,63.45
2023-03-15T10:01:02.685Z,60.16
2023-03-15T10:02:02.547Z,60.06
2023-03-15T10:03:02.459Z,58.91
2023-03-15T10:04:02.573Z,60.27
2023-03-15T10:05:02.602Z,62.26
2023-03-15T10:06:02.522Z,58.75
2023-03-15T10:07:02.619Z,59.32
2023-03-15T10:08:02.415Z,60.96
2023-03-15T10:09:02.436Z,59.58
2023-03-15T10:10:02.479Z,56.93
2023-03-15T10:11:02.515Z,58.37
2023-03-15T10:12:02.377Z,60.35
2023-03-15T10:13:02.518Z,59.38
2023-03-15T10:14:02.400Z,58.36
2023-03-15T10:15:02.383Z,58.82
2023-03-15T10:16:02.443Z,58.59
2023-03-15T10:17:02.495Z,57.11
2023-03-15T10:18:02.330Z,59.22
2023-03-15T10:19:02.506Z,58.67
2023-03-15T10:20:02.343Z,60.31
2023-03-15T10:21:02.317Z,58.97
2023-03-15T10:22:02.307Z,59.31
2023-03-15T10:23:02.291Z,58.28
2023-03-15T10:24:02.291Z,60.87
2023-03-15T10:25:02.498Z,59.67
2023-03-15T10:26:02.294Z,61.47
2023-03-15T10:27:02.285Z,59.76
2023-03-15T10:28:02.267Z,58.00
2023-03-15T10:29:02.254Z,59.19
2023-03-15T10:30:02.239Z,60.16
2023-03-15T10:31:02.456Z,61.32
2023-03-15T10:32:02.305Z,58.61
2023-03-15T10:33:02.320Z,59.39
2023-03-15T10:34:02.210Z,60.68
2023-03-15T10:35:02.301Z,60.73
2023-03-15T10:36:10.948Z,59.79
2023-03-15T10:37:03.220Z,60.93
2023-03-15T10:38:02.203Z,60.11
2023-03-15T10:39:02.235Z,56.85
2023-03-15T10:40:02.182Z,59.07
2023-03-15T10:41:02.277Z,60.71
2023-03-15T10:42:02.164Z,57.49
2023-03-15T10:43:02.353Z,57.32
2023-03-15T10:44:02.139Z,55.47
2023-03-15T10:45:02.170Z,59.70
2023-03-15T10:46:02.143Z,58.14
2023-03-15T10:47:07.039Z,62.44
2023-03-15T10:48:03.130Z,60.90
2023-03-15T10:49:02.253Z,57.88
2023-03-15T10:50:02.105Z,60.29
2023-03-15T10:51:02.081Z,59.61
2023-03-15T10:52:02.170Z,59.95
2023-03-15T10:53:02.188Z,62.64
2023-03-15T10:54:02.116Z,58.98
2023-03-15T10:55:04.607Z,59.81
2023-03-15T10:56:02.138Z,58.44
2023-03-15T10:57:02.076Z,58.19
2023-03-15T10:58:02.085Z,60.23
2023-03-15T10:59:12.573Z,58.32
2023-03-15T11:00:03.090Z,58.92
2023-03-15T11:01:02.093Z,62.58
2023-03-15T11:02:02.067Z,62.34
2023-03-15T11:03:02.083Z,62.36
2023-03-15T11:04:02.091Z,60.75
2023-03-15T11:05:02.389Z,63.41
2023-03-15T11:06:02.004Z,59.88
2023-03-15T11:07:02.064Z,63.07
2023-03-15T11:08:02.074Z,60.17
2023-03-15T11:09:01.956Z,58.51
2023-03-15T11:10:01.948Z,61.76
2023-03-15T11:11:02.110Z,60.53
2023-03-15T11:12:01.974Z,56.39
2023-03-15T11:13:02.117Z,58.31
2023-03-15T11:14:01.918Z,57.31
2023-03-15T11:15:01.975Z,58.73
2023-03-15T11:16:02.024Z,59.78
2023-03-15T11:17:02.071Z,60.86
2023-03-15T11:18:01.947Z,59.58
2023-03-15T11:19:02.027Z,56.83
2023-03-15T11:20:01.894Z,59.16
2023-03-15T11:21:01.935Z,60.25
2023-03-15T11:22:01.901Z,57.15
2023-03-15T11:23:01.927Z,58.51
2023-03-15T11:24:02.109Z,60.14
2023-03-15T11:25:02.109Z,60.14
2023-03-15T11:26:01.856Z,58.28
2023-03-15T11:27:01.848Z,57.94
2023-03-15T11:28:01.826Z,57.18
2023-03-15T11:29:01.809Z,58.77
2023-03-15T11:30:01.883Z,57.77
2023-03-15T11:31:01.924Z,58.06
2023-03-15T11:32:01.803Z,58.29
2023-03-15T11:33:01.899Z,59.44
2023-03-15T11:34:01.932Z,59.46
2023-03-15T11:35:01.886Z,60.58
2023-03-15T11:36:01.831Z,59.80
2023-03-15T11:37:08.463Z,58.60
2023-03-15T11:38:14.668Z,58.36
2023-03-15T11:39:03.195Z,61.78
2023-03-15T11:40:10.787Z,59.56
2023-03-15T11:41:02.826Z,57.17
2023-03-15T11:42:01.758Z,61.27
2023-03-15T11:43:01.808Z,61.14
2023-03-15T11:44:01.732Z,59.39
2023-03-15T11:45:01.702Z,58.05
2023-03-15T11:46:01.750Z,59.88
2023-03-15T11:47:02.165Z,60.88
2023-03-15T11:48:01.677Z,57.09
2023-03-15T11:49:01.934Z,58.35
2023-03-15T11:50:01.777Z,58.99
2023-03-15T11:51:01.716Z,60.70
2023-03-15T11:52:01.646Z,58.91
2023-03-15T11:53:01.820Z,58.29
2023-03-15T11:54:01.649Z,58.13
2023-03-15T11:55:01.774Z,57.22
2023-03-15T11:56:01.668Z,57.84
2023-03-15T11:57:01.640Z,57.01
2023-03-15T11:58:02.714Z,58.97
2023-03-15T11:59:01.779Z,56.67
2023-03-15T12:00:01.705Z,55.07
2023-03-15T12:01:01.760Z,59.87
2023-03-15T12:02:01.691Z,56.39
2023-03-15T12:03:01.616Z,55.63
2023-03-15T12:04:01.712Z,57.62
2023-03-15T12:05:09.149Z,54.65
2023-03-15T12:06:02.648Z,60.76
2023-03-15T12:07:01.903Z,54.77
2023-03-15T12:08:01.656Z,54.74
2023-03-15T12:09:01.545Z,58.25
2023-03-15T12:10:01.570Z,60.08
2023-03-15T12:11:01.688Z,59.32
2023-03-15T12:12:01.526Z,56.11
2023-03-15T12:13:01.651Z,58.32
2023-03-15T12:14:01.492Z,57.46
2023-03-15T12:15:01.523Z,58.54
2023-03-15T12:16:01.549Z,59.31
2023-03-15T12:17:01.608Z,57.59
2023-03-15T12:18:01.446Z,55.87
2023-03-15T12:19:01.660Z,57.85
2023-03-15T12:20:01.454Z,55.73
2023-03-15T12:21:01.501Z,56.07
2023-03-15T12:22:04.571Z,56.57
2023-03-15T12:23:01.862Z,57.93
2023-03-15T12:24:01.453Z,55.97
2023-03-15T12:25:01.576Z,58.07
2023-03-15T12:26:01.444Z,59.41
2023-03-15T12:27:01.453Z,58.04
2023-03-15T12:28:01.476Z,60.89
2023-03-15T12:29:01.505Z,57.63
2023-03-15T12:30:01.493Z,59.63
2023-03-15T12:31:01.610Z,57.98
2023-03-15T12:32:01.408Z,57.21
2023-03-15T12:33:01.419Z,55.07
2023-03-15T12:34:01.371Z,57.77
2023-03-15T12:35:01.497Z,54.46
2023-03-15T12:36:01.378Z,56.93
2023-03-15T12:37:01.349Z,62.49
2023-03-15T12:38:01.400Z,58.40
2023-03-15T12:39:01.383Z,59.26
2023-03-15T12:40:01.322Z,60.56
2023-03-15T12:41:06.518Z,57.90
2023-03-15T12:42:01.330Z,58.94
2023-03-15T12:43:01.411Z,56.56
2023-03-15T12:44:01.387Z,56.06
2023-03-15T12:45:02.386Z,58.10
2023-03-15T12:46:01.336Z,57.43
2023-03-15T12:47:01.526Z,59.46
2023-03-15T12:48:01.315Z,59.70
2023-03-15T12:49:02.339Z,62.18
2023-03-15T12:50:01.222Z,66.29
2023-03-15T12:51:01.208Z,67.20
2023-03-15T12:52:01.225Z,62.73